createdAt,value
2019-02-26T00:03:41.098Z,10.00
2019-02-26T00:08:54.115Z,10.00
2019-02-26T00:14:06.287Z,9.90
2019-02-26T00:19:18.263Z,9.80
2019-02-26T00:24:30.771Z,9.80
2019-02-26T00:29:44.309Z,9.80
2019-02-26T00:34:57.992Z,9.80
2019-02-26T00:40:12.168Z,9.70
2019-02-26T00:45:26.997Z,9.70
2019-02-26T00:50:39.656Z,9.60
2019-02-26T00:55:51.641Z,9.60
2019-02-26T01:01:08.260Z,9.60
2019-02-26T01:06:18.410Z,9.60
2019-02-26T01:11:30.316Z,9.50
2019-02-26T01:16:43.785Z,9.50
2019-02-26T01:21:55.682Z,9.40
2019-02-26T01:27:07.349Z,9.30
2019-02-26T01:32:20.919Z,9.20
2019-02-26T01:37:34.329Z,9.20
2019-02-26T01:42:50.123Z,9.20
2019-02-26T01:47:59.999Z,9.10
2019-02-26T01:53:14.431Z,9.00
2019-02-26T01:58:26.042Z,9.00
2019-02-26T02:03:37.637Z,9.00
2019-02-26T02:08:50.584Z,8.90
2019-02-26T02:14:05.751Z,8.90
2019-02-26T02:19:18.451Z,8.80
2019-02-26T02:24:28.961Z,8.80
2019-02-26T02:29:43.796Z,8.80
2019-02-26T02:34:58.333Z,8.70
2019-02-26T02:40:08.464Z,8.60
2019-02-26T02:45:21.111Z,8.70
2019-02-26T02:50:32.787Z,8.60
2019-02-26T02:55:46.981Z,8.60
2019-02-26T03:01:00.207Z,8.60
2019-02-26T03:06:12.377Z,8.50
2019-02-26T03:11:23.923Z,8.50
2019-02-26T03:16:35.102Z,8.50
2019-02-26T03:21:49.486Z,8.50
2019-02-26T03:27:00.448Z,8.50
2019-02-26T03:32:12.036Z,8.50
2019-02-26T03:37:25.656Z,8.40
2019-02-26T03:42:41.623Z,8.40
2019-02-26T03:47:55.336Z,8.40
2019-02-26T03:53:09.075Z,8.50
2019-02-26T03:58:20.121Z,8.40
2019-02-26T04:03:32.598Z,8.40
2019-02-26T04:08:47.716Z,8.40
2019-02-26T04:13:58.134Z,8.30
2019-02-26T04:19:09.989Z,8.40
2019-02-26T04:24:23.179Z,8.40
2019-02-26T04:29:36.135Z,8.40
2019-02-26T04:34:51.242Z,8.40
2019-02-26T04:40:04.879Z,8.40
2019-02-26T04:45:16.316Z,8.40
2019-02-26T04:50:31.525Z,8.30
2019-02-26T04:55:44.903Z,8.30
2019-02-26T05:00:55.706Z,8.30
2019-02-26T05:06:08.580Z,8.30
2019-02-26T05:11:31.555Z,8.30
2019-02-26T05:16:36.644Z,8.30
2019-02-26T05:21:47.659Z,8.30
2019-02-26T05:26:59.654Z,8.30
2019-02-26T05:32:10.875Z,8.30
2019-02-26T05:37:22.731Z,8.20
2019-02-26T05:42:34.962Z,8.10
2019-02-26T05:47:48.890Z,8.10
2019-02-26T05:53:01.895Z,8.10
2019-02-26T05:58:18.092Z,8.10
2019-02-26T06:03:26.721Z,8.10
2019-02-26T06:08:41.133Z,8.10
2019-02-26T06:13:55.529Z,8.00
2019-02-26T06:19:08.403Z,7.90
2019-02-26T06:24:22.424Z,7.90
2019-02-26T06:29:34.937Z,7.90
2019-02-26T06:34:46.734Z,7.90
2019-02-26T06:40:00.486Z,7.80
2019-02-26T06:45:14.978Z,7.80
2019-02-26T06:50:25.334Z,7.70
2019-02-26T06:55:37.375Z,7.70
2019-02-26T07:00:54.645Z,7.70
2019-02-26T07:06:04.827Z,7.70
2019-02-26T07:11:16.823Z,7.80
2019-02-26T07:16:28.834Z,7.80
2019-02-26T07:21:42.741Z,7.90
2019-02-26T07:26:53.502Z,8.00
2019-02-26T07:32:05.649Z,8.10
2019-02-26T07:37:17.716Z,8.20
2019-02-26T07:42:32.733Z,8.30
2019-02-26T07:47:45.120Z,8.30
2019-02-26T07:52:57.565Z,8.40
2019-02-26T07:58:11.080Z,8.40
2019-02-26T08:03:24.780Z,8.50
2019-02-26T08:08:37.522Z,8.60
2019-02-26T08:13:51.857Z,8.60
2019-02-26T08:19:03.231Z,8.70
2019-02-26T08:24:17.004Z,8.70
2019-02-26T08:29:30.803Z,8.80
2019-02-26T08:34:42.485Z,9.00
2019-02-26T08:39:57.416Z,9.10
2019-02-26T08:45:08.171Z,9.20
2019-02-26T08:50:20.639Z,9.30
2019-02-26T08:55:32.415Z,9.50
2019-02-26T09:00:44.575Z,9.60
2019-02-26T09:06:07.778Z,9.70
2019-02-26T09:11:11.473Z,9.90
2019-02-26T09:16:27.378Z,10.00
2019-02-26T09:21:41.747Z,10.20
2019-02-26T09:26:52.190Z,10.30
2019-02-26T09:32:06.682Z,10.40
2019-02-26T09:37:18.119Z,10.60
2019-02-26T09:42:30.551Z,10.70
2019-02-26T09:47:44.935Z,10.90
2019-02-26T09:52:59.161Z,11.10
2019-02-26T09:58:10.200Z,11.30
2019-02-26T10:03:22.278Z,11.50
2019-02-26T10:08:33.995Z,11.60
2019-02-26T10:13:47.242Z,11.70
2019-02-26T10:18:59.439Z,11.90
2019-02-26T10:23:59.532Z,12.10
2019-02-26T10:29:28.499Z,12.20
2019-02-26T10:34:40.447Z,12.40
2019-02-26T10:39:54.928Z,12.50
2019-02-26T10:45:05.839Z,12.70
2019-02-26T10:50:19.361Z,12.80
2019-02-26T10:55:38.365Z,13.00
2019-02-26T11:00:44.503Z,13.20
2019-02-26T11:05:56.619Z,13.30
2019-02-26T11:11:09.962Z,13.60
2019-02-26T11:16:25.219Z,13.70
2019-02-26T11:21:36.146Z,13.90
2019-02-26T11:26:48.127Z,13.90
2019-02-26T11:32:01.655Z,14.00
2019-02-26T11:37:13.854Z,14.10
2019-02-26T11:42:26.955Z,14.20
2019-02-26T11:47:41.288Z,14.30
2019-02-26T11:52:40.985Z,14.50
2019-02-26T11:57:59.883Z,14.60
2019-02-26T12:03:11.747Z,14.70
2019-02-26T12:08:25.701Z,14.70
2019-02-26T12:13:36.455Z,14.80
2019-02-26T12:18:48.224Z,15.00
2019-02-26T12:24:01.591Z,15.00
2019-02-26T12:29:13.298Z,15.10
2019-02-26T12:34:25.222Z,15.10
2019-02-26T12:39:36.781Z,15.00
2019-02-26T12:44:48.578Z,15.00
2019-02-26T12:50:01.999Z,15.00
2019-02-26T12:55:14.667Z,15.10
2019-02-26T13:00:26.617Z,15.20
2019-02-26T13:05:39.274Z,15.20
2019-02-26T13:10:57.774Z,15.00
2019-02-26T13:16:06.179Z,15.10
2019-02-26T13:21:18.950Z,15.20
2019-02-26T13:26:36.038Z,15.30
2019-02-26T13:31:53.499Z,15.30
2019-02-26T13:36:58.662Z,15.10
2019-02-26T13:42:14.219Z,15.10
2019-02-26T13:47:24.795Z,15.10
2019-02-26T13:52:36.385Z,15.20
2019-02-26T13:57:48.100Z,15.30
2019-02-26T14:03:00.264Z,15.40
2019-02-26T14:08:12.182Z,15.30
2019-02-26T14:13:23.831Z,15.30
2019-02-26T14:18:35.508Z,15.30
2019-02-26T14:23:47.418Z,15.30
2019-02-26T14:28:59.145Z,15.20
2019-02-26T14:34:10.956Z,15.10
2019-02-26T14:39:23.107Z,15.20
2019-02-26T14:44:34.690Z,15.20
2019-02-26T14:49:46.091Z,15.30
2019-02-26T14:54:57.915Z,15.50
2019-02-26T15:00:09.715Z,15.60
2019-02-26T15:05:23.055Z,15.80
2019-02-26T15:10:34.926Z,15.90
2019-02-26T15:15:46.191Z,16.00
2019-02-26T15:20:58.287Z,16.00
2019-02-26T15:26:10.475Z,16.10
2019-02-26T15:31:22.811Z,16.10
2019-02-26T15:36:34.079Z,16.10
2019-02-26T15:41:45.632Z,16.10
2019-02-26T15:46:57.131Z,16.00
2019-02-26T15:52:09.886Z,16.00
2019-02-26T15:57:21.603Z,16.00
2019-02-26T16:02:33.699Z,15.90
2019-02-26T16:07:45.954Z,15.80
2019-02-26T16:13:04.178Z,15.70
2019-02-26T16:18:16.308Z,15.60
2019-02-26T16:23:28.047Z,15.60
2019-02-26T16:28:39.542Z,15.50
2019-02-26T16:33:51.623Z,15.40
2019-02-26T16:39:04.262Z,15.30
2019-02-26T16:44:18.064Z,15.20
2019-02-26T16:49:30.371Z,15.10
2019-02-26T16:54:41.965Z,14.90
2019-02-26T16:59:53.523Z,14.80
2019-02-26T17:05:05.467Z,14.70
2019-02-26T17:10:17.482Z,14.70
2019-02-26T17:15:29.598Z,14.50
2019-02-26T17:20:41.414Z,14.60
2019-02-26T17:25:54.895Z,14.50
2019-02-26T17:31:07.819Z,14.50
2019-02-26T17:36:19.107Z,14.40
2019-02-26T17:41:31.219Z,14.30
2019-02-26T17:46:43.352Z,14.20
2019-02-26T17:51:55.103Z,14.20
2019-02-26T17:57:07.183Z,14.10
2019-02-26T18:02:19.147Z,14.10
2019-02-26T18:07:29.340Z,14.00
2019-02-26T18:12:48.210Z,14.00
2019-02-26T18:17:59.676Z,14.00
2019-02-26T18:23:11.658Z,13.90
2019-02-26T18:28:23.679Z,13.90
2019-02-26T18:33:36.231Z,13.80
2019-02-26T18:38:49.233Z,13.70
2019-02-26T18:44:07.395Z,13.60
2019-02-26T18:49:26.623Z,13.60
2019-02-26T18:54:38.799Z,13.60
2019-02-26T18:59:53.399Z,13.50
2019-02-26T19:05:03.921Z,13.40
2019-02-26T19:10:19.427Z,13.40
2019-02-26T19:15:30.003Z,13.30
2019-02-26T19:20:42.059Z,13.20
2019-02-26T19:25:53.754Z,13.10
2019-02-26T19:31:09.580Z,13.10
2019-02-26T19:36:20.992Z,13.00
2019-02-26T19:41:32.471Z,12.90
2019-02-26T19:46:44.579Z,12.90
2019-02-26T19:51:56.631Z,12.80
2019-02-26T19:57:09.128Z,12.80
2019-02-26T20:02:20.549Z,12.70
2019-02-26T20:07:32.599Z,12.60
2019-02-26T20:12:46.131Z,12.50
2019-02-26T20:17:58.100Z,12.50
2019-02-26T20:23:09.471Z,12.40
2019-02-26T20:28:21.415Z,12.30
2019-02-26T20:33:32.731Z,12.20
2019-02-26T20:38:44.030Z,12.10
2019-02-26T20:43:55.890Z,12.10
2019-02-26T20:49:07.209Z,12.00
2019-02-26T20:54:19.015Z,11.90
2019-02-26T20:59:30.791Z,11.90
2019-02-26T21:04:42.659Z,11.80
2019-02-26T21:10:03.344Z,11.80
2019-02-26T21:15:13.624Z,11.80
2019-02-26T21:20:22.975Z,11.70
2019-02-26T21:25:35.039Z,11.60
2019-02-26T21:30:46.990Z,11.60
2019-02-26T21:35:58.570Z,11.50
2019-02-26T21:41:09.942Z,11.40
2019-02-26T21:46:22.717Z,11.30
2019-02-26T21:51:35.245Z,11.30
2019-02-26T21:56:48.880Z,11.20
2019-02-26T22:02:01.138Z,11.10
2019-02-26T22:07:12.966Z,11.00
2019-02-26T22:12:24.728Z,11.00
2019-02-26T22:17:36.741Z,10.90
2019-02-26T22:22:48.883Z,10.80
2019-02-26T22:28:00.626Z,10.80
2019-02-26T22:33:12.491Z,10.70
2019-02-26T22:38:23.766Z,10.60
2019-02-26T22:43:35.350Z,10.60
2019-02-26T22:48:46.937Z,10.50
2019-02-26T22:53:59.238Z,10.50
2019-02-26T22:59:10.463Z,10.40
2019-02-26T23:04:22.434Z,10.30
2019-02-26T23:09:34.662Z,10.20
2019-02-26T23:14:46.438Z,10.10
2019-02-26T23:19:58.114Z,10.00
2019-02-26T23:25:10.179Z,9.90
2019-02-26T23:30:24.959Z,9.90
2019-02-26T23:35:36.655Z,9.80
2019-02-26T23:40:48.454Z,9.70
2019-02-26T23:45:59.703Z,9.70
2019-02-26T23:51:11.650Z,9.60
2019-02-26T23:56:23.124Z,9.50
